createdAt,value
2022-09-17T00:00:49.469Z,980.76
2022-09-17T00:01:49.548Z,980.75
2022-09-17T00:02:49.468Z,980.74
2022-09-17T00:05:15.604Z,980.77
2022-09-17T00:06:15.587Z,980.76
2022-09-17T00:07:15.571Z,980.77
2022-09-17T00:08:15.564Z,980.76
2022-09-17T00:09:15.563Z,980.78
2022-09-17T00:10:15.556Z,980.78
2022-09-17T00:11:15.575Z,980.78
2022-09-17T00:12:15.636Z,980.80
2022-09-17T00:13:15.534Z,980.82
2022-09-17T00:14:15.540Z,980.80
2022-09-17T00:15:15.512Z,980.80
2022-09-17T00:16:15.593Z,980.80
2022-09-17T00:17:15.523Z,980.82
2022-09-17T00:18:15.506Z,980.83
2022-09-17T00:19:15.494Z,980.86
2022-09-17T00:20:15.475Z,980.85
2022-09-17T00:21:15.458Z,980.88
2022-09-17T00:22:15.488Z,980.90
2022-09-17T00:23:15.436Z,980.88
2022-09-17T00:24:15.441Z,980.93
2022-09-17T00:25:15.431Z,980.96
2022-09-17T00:26:15.417Z,980.97
2022-09-17T00:27:15.433Z,980.98
2022-09-17T00:28:15.504Z,981.06
2022-09-17T00:29:15.384Z,981.06
2022-09-17T00:30:15.381Z,981.06
2022-09-17T00:31:15.417Z,981.06
2022-09-17T00:32:15.405Z,981.00
2022-09-17T00:33:15.406Z,981.03
2022-09-17T00:34:15.395Z,981.02
2022-09-17T00:35:15.342Z,981.02
2022-09-17T00:36:15.350Z,981.01
2022-09-17T00:37:15.334Z,981.01
2022-09-17T00:38:15.325Z,981.01
2022-09-17T00:39:15.333Z,981.01
2022-09-17T00:40:15.364Z,981.05
2022-09-17T00:41:15.300Z,981.06
2022-09-17T00:42:15.319Z,981.05
2022-09-17T00:43:15.283Z,981.04
2022-09-17T00:44:15.378Z,981.03
2022-09-17T00:45:15.280Z,981.02
2022-09-17T00:46:15.306Z,981.00
2022-09-17T00:47:15.258Z,981.01
2022-09-17T00:48:15.263Z,981.00
2022-09-17T00:49:15.235Z,981.02
2022-09-17T00:50:15.225Z,981.01
2022-09-17T00:51:15.220Z,980.99
2022-09-17T00:52:15.221Z,981.02
2022-09-17T00:53:15.196Z,981.01
2022-09-17T00:54:15.211Z,980.99
2022-09-17T00:55:15.188Z,981.02
2022-09-17T00:56:15.171Z,981.02
2022-09-17T00:57:15.163Z,981.00
2022-09-17T00:58:15.160Z,981.01
2022-09-17T00:59:15.169Z,981.00
2022-09-17T01:00:15.230Z,980.98
2022-09-17T01:01:15.171Z,980.98
2022-09-17T01:02:15.165Z,980.98
2022-09-17T01:03:15.111Z,980.98
2022-09-17T01:04:15.101Z,980.98
2022-09-17T01:05:15.115Z,980.99
2022-09-17T01:06:15.087Z,980.96
2022-09-17T01:07:15.124Z,980.97
2022-09-17T01:08:15.071Z,980.95
2022-09-17T01:09:15.078Z,980.98
2022-09-17T01:10:15.052Z,980.96
2022-09-17T01:11:15.121Z,980.95
2022-09-17T01:12:15.049Z,980.93
2022-09-17T01:13:15.040Z,980.93
2022-09-17T01:14:15.043Z,980.91
2022-09-17T01:15:15.017Z,980.91
2022-09-17T01:16:15.179Z,980.92
2022-09-17T01:17:15.076Z,980.91
2022-09-17T01:18:14.993Z,980.92
2022-09-17T01:19:14.968Z,980.92
2022-09-17T01:20:14.967Z,980.94
2022-09-17T01:21:14.961Z,980.93
2022-09-17T01:22:14.977Z,980.99
2022-09-17T01:23:14.968Z,980.97
2022-09-17T01:24:22.454Z,980.97
2022-09-17T01:25:14.922Z,980.99
2022-09-17T01:26:14.913Z,980.95
2022-09-17T01:27:14.911Z,980.93
2022-09-17T01:28:14.901Z,980.90
2022-09-17T01:29:14.913Z,980.88
2022-09-17T01:30:14.886Z,980.90
2022-09-17T01:31:15.058Z,980.89
2022-09-17T01:32:14.951Z,980.90
2022-09-17T01:33:15.010Z,980.91
2022-09-17T01:34:14.840Z,980.88
2022-09-17T01:35:14.853Z,980.92
2022-09-17T01:36:14.836Z,980.93
2022-09-17T01:37:14.816Z,980.92
2022-09-17T01:38:14.814Z,980.92
2022-09-17T01:39:14.815Z,980.95
2022-09-17T01:40:14.846Z,980.98
2022-09-17T01:41:14.833Z,980.96
2022-09-17T01:42:14.789Z,980.95
2022-09-17T01:43:14.779Z,980.94
2022-09-17T01:44:14.772Z,980.92
2022-09-17T01:45:14.755Z,980.91
2022-09-17T01:46:14.796Z,980.88
2022-09-17T01:47:18.858Z,980.88
2022-09-17T01:48:15.831Z,980.89
2022-09-17T01:49:14.714Z,980.89
2022-09-17T01:50:14.720Z,980.88
2022-09-17T01:51:14.710Z,980.87
2022-09-17T01:52:14.701Z,980.88
2022-09-17T01:53:15.032Z,980.89
2022-09-17T01:54:14.696Z,980.89
2022-09-17T01:55:14.687Z,980.89
2022-09-17T01:56:14.723Z,980.88
2022-09-17T01:57:14.658Z,980.90
2022-09-17T01:58:14.643Z,980.89
2022-09-17T01:59:14.638Z,980.88
2022-09-17T02:00:14.630Z,980.89
2022-09-17T02:01:14.761Z,980.88
2022-09-17T02:02:14.651Z,980.88
2022-09-17T02:03:14.635Z,980.91
2022-09-17T02:04:14.688Z,980.90
2022-09-17T02:05:14.590Z,980.93
2022-09-17T02:06:14.591Z,980.95
2022-09-17T02:07:14.566Z,980.96
2022-09-17T02:08:14.573Z,980.96
2022-09-17T02:09:15.544Z,980.98
2022-09-17T02:10:14.570Z,980.98
2022-09-17T02:11:14.530Z,980.96
2022-09-17T02:12:15.059Z,980.97
2022-09-17T02:13:14.516Z,980.98
2022-09-17T02:14:14.506Z,980.96
2022-09-17T02:15:14.525Z,980.98
2022-09-17T02:16:14.534Z,981.00
2022-09-17T02:17:14.482Z,981.02
2022-09-17T02:18:14.510Z,981.01
2022-09-17T02:19:14.472Z,980.98
2022-09-17T02:20:14.550Z,980.98
2022-09-17T02:21:14.491Z,980.97
2022-09-17T02:22:14.444Z,980.99
2022-09-17T02:23:14.437Z,981.00
2022-09-17T02:24:14.432Z,981.01
2022-09-17T02:25:14.419Z,981.02
2022-09-17T02:26:14.411Z,981.04
2022-09-17T02:27:14.416Z,981.04
2022-09-17T02:28:14.383Z,981.05
2022-09-17T02:29:14.383Z,981.04
2022-09-17T02:30:14.395Z,981.08
2022-09-17T02:31:14.397Z,981.07
2022-09-17T02:32:14.362Z,981.05
2022-09-17T02:33:14.369Z,981.07
2022-09-17T02:34:14.354Z,981.06
2022-09-17T02:35:14.327Z,981.07
2022-09-17T02:36:14.405Z,981.07
2022-09-17T02:37:14.310Z,981.07
2022-09-17T02:38:14.365Z,981.08
2022-09-17T02:39:14.316Z,981.09
2022-09-17T02:40:14.376Z,981.09
2022-09-17T02:41:14.283Z,981.10
2022-09-17T02:42:14.262Z,981.09
2022-09-17T02:43:14.249Z,981.12
2022-09-17T02:44:14.272Z,981.12
2022-09-17T02:45:14.235Z,981.13
2022-09-17T02:46:14.254Z,981.08
2022-09-17T02:47:14.225Z,981.08
2022-09-17T02:48:14.209Z,981.09
2022-09-17T02:49:14.230Z,981.11
2022-09-17T02:50:14.217Z,981.10
2022-09-17T02:51:14.185Z,981.12
2022-09-17T02:52:14.271Z,981.13
2022-09-17T02:53:14.181Z,981.13
2022-09-17T02:54:14.169Z,981.13
2022-09-17T02:55:14.159Z,981.12
2022-09-17T02:56:14.203Z,981.15
2022-09-17T02:57:14.157Z,981.14
2022-09-17T02:58:14.145Z,981.14
2022-09-17T02:59:14.123Z,981.14
2022-09-17T03:00:14.116Z,981.15
2022-09-17T03:01:14.170Z,981.14
2022-09-17T03:02:14.284Z,981.14
2022-09-17T03:03:14.115Z,981.16
2022-09-17T03:04:14.091Z,981.17
2022-09-17T03:05:14.083Z,981.16
2022-09-17T03:06:14.072Z,981.16
2022-09-17T03:07:14.081Z,981.17
2022-09-17T03:08:14.132Z,981.18
2022-09-17T03:09:14.035Z,981.18
2022-09-17T03:10:14.106Z,981.21
2022-09-17T03:11:14.025Z,981.20
2022-09-17T03:12:14.009Z,981.17
2022-09-17T03:13:14.008Z,981.18
2022-09-17T03:14:14.029Z,981.18
2022-09-17T03:15:14.009Z,981.15
2022-09-17T03:16:14.081Z,981.15
2022-09-17T03:17:13.987Z,981.16
2022-09-17T03:18:13.966Z,981.16
2022-09-17T03:19:13.971Z,981.17
2022-09-17T03:20:13.963Z,981.19
2022-09-17T03:21:13.963Z,981.18
2022-09-17T03:22:13.942Z,981.18
2022-09-17T03:23:13.921Z,981.21
2022-09-17T03:24:14.008Z,981.18
2022-09-17T03:25:13.929Z,981.15
2022-09-17T03:26:13.899Z,981.16
2022-09-17T03:27:13.920Z,981.18
2022-09-17T03:28:13.878Z,981.16
2022-09-17T03:29:13.865Z,981.16
2022-09-17T03:30:13.862Z,981.19
2022-09-17T03:31:13.923Z,981.20
2022-09-17T03:32:13.852Z,981.22
2022-09-17T03:33:13.863Z,981.22
2022-09-17T03:34:13.880Z,981.22
2022-09-17T03:35:13.857Z,981.22
2022-09-17T03:36:13.822Z,981.25
2022-09-17T03:37:13.869Z,981.25
2022-09-17T03:38:13.799Z,981.27
2022-09-17T03:39:13.786Z,981.25
2022-09-17T03:40:13.955Z,981.26
2022-09-17T03:41:13.779Z,981.24
2022-09-17T03:42:13.789Z,981.27
2022-09-17T03:43:13.751Z,981.29
2022-09-17T03:44:13.740Z,981.31
2022-09-17T03:45:13.745Z,981.30
2022-09-17T03:46:13.787Z,981.32
2022-09-17T03:47:13.727Z,981.33
2022-09-17T03:48:13.742Z,981.33
2022-09-17T03:49:13.715Z,981.37
2022-09-17T03:50:13.716Z,981.37
2022-09-17T03:51:13.700Z,981.39
2022-09-17T03:52:13.693Z,981.40
2022-09-17T03:53:13.694Z,981.41
2022-09-17T03:54:13.687Z,981.40
2022-09-17T03:55:13.664Z,981.39
2022-09-17T03:56:13.744Z,981.40
2022-09-17T03:57:13.636Z,981.42
2022-09-17T03:58:13.637Z,981.42
2022-09-17T03:59:13.648Z,981.44
2022-09-17T04:00:13.631Z,981.46
2022-09-17T04:01:13.673Z,981.51
2022-09-17T04:02:13.675Z,981.48
2022-09-17T04:03:13.585Z,981.50
2022-09-17T04:04:13.592Z,981.50
2022-09-17T04:05:13.570Z,981.52
2022-09-17T04:06:13.584Z,981.55
2022-09-17T04:07:13.554Z,981.53
2022-09-17T04:08:13.534Z,981.57
2022-09-17T04:09:13.532Z,981.59
2022-09-17T04:10:13.524Z,981.59
2022-09-17T04:11:13.543Z,981.60
2022-09-17T04:12:13.635Z,981.61
2022-09-17T04:13:13.515Z,981.61
2022-09-17T04:14:13.494Z,981.62
2022-09-17T04:15:13.486Z,981.61
2022-09-17T04:16:13.529Z,981.62
2022-09-17T04:17:13.495Z,981.63
2022-09-17T04:18:13.486Z,981.64
2022-09-17T04:19:13.452Z,981.64
2022-09-17T04:20:13.456Z,981.65
2022-09-17T04:21:13.463Z,981.66
2022-09-17T04:22:13.422Z,981.64
2022-09-17T04:23:13.411Z,981.67
2022-09-17T04:24:13.401Z,981.66
2022-09-17T04:25:13.403Z,981.66
2022-09-17T04:26:13.411Z,981.65
2022-09-17T04:27:13.436Z,981.66
2022-09-17T04:28:13.535Z,981.69
2022-09-17T04:29:13.369Z,981.71
2022-09-17T04:30:13.351Z,981.72
2022-09-17T04:31:13.376Z,981.74
2022-09-17T04:32:13.343Z,981.73
2022-09-17T04:33:13.440Z,981.72
2022-09-17T04:34:13.353Z,981.72
2022-09-17T04:35:13.307Z,981.72
2022-09-17T04:36:13.293Z,981.74
2022-09-17T04:37:13.307Z,981.72
2022-09-17T04:38:13.287Z,981.71
2022-09-17T04:39:13.294Z,981.73
2022-09-17T04:40:13.368Z,981.74
2022-09-17T04:41:13.274Z,981.77
2022-09-17T04:42:13.254Z,981.78
2022-09-17T04:43:13.239Z,981.82
2022-09-17T04:44:13.347Z,981.84
2022-09-17T04:45:13.253Z,981.86
2022-09-17T04:46:13.280Z,981.85
2022-09-17T04:47:13.218Z,981.83
2022-09-17T04:48:13.321Z,981.86
2022-09-17T04:49:13.197Z,981.90
2022-09-17T04:50:13.198Z,981.89
2022-09-17T04:51:13.176Z,981.90
2022-09-17T04:52:13.180Z,981.91
2022-09-17T04:53:13.156Z,981.90
2022-09-17T04:54:13.158Z,981.92
2022-09-17T04:55:13.164Z,981.88
2022-09-17T04:56:13.127Z,981.91
2022-09-17T04:57:13.122Z,981.91
2022-09-17T04:58:13.141Z,981.91
2022-09-17T04:59:13.127Z,981.92
2022-09-17T05:00:13.197Z,981.93
2022-09-17T05:01:13.210Z,981.95
2022-09-17T05:02:13.158Z,981.94
2022-09-17T05:03:13.073Z,981.94
2022-09-17T05:04:13.063Z,981.95
2022-09-17T05:05:13.086Z,981.96
2022-09-17T05:06:13.317Z,981.97
2022-09-17T05:07:13.998Z,981.97
2022-09-17T05:08:13.101Z,981.98
2022-09-17T05:09:13.035Z,982.00
2022-09-17T05:10:13.039Z,982.00
2022-09-17T05:11:13.038Z,982.02
2022-09-17T05:12:13.002Z,982.04
2022-09-17T05:13:12.989Z,982.02
2022-09-17T05:14:13.018Z,982.02
2022-09-17T05:15:13.021Z,982.01
2022-09-17T05:16:13.169Z,982.01
2022-09-17T05:17:13.533Z,982.01
2022-09-17T05:18:12.942Z,982.01
2022-09-17T05:19:12.941Z,982.03
2022-09-17T05:20:13.288Z,982.03
2022-09-17T05:21:12.961Z,982.07
2022-09-17T05:22:12.919Z,982.08
2022-09-17T05:23:12.906Z,982.09
2022-09-17T05:24:13.240Z,982.07
2022-09-17T05:25:12.889Z,982.07
2022-09-17T05:26:12.878Z,982.10
2022-09-17T05:27:12.873Z,982.12
2022-09-17T05:28:12.862Z,982.09
2022-09-17T05:29:12.861Z,982.09
2022-09-17T05:30:12.938Z,982.11
2022-09-17T05:31:12.866Z,982.14
2022-09-17T05:32:13.643Z,982.14
2022-09-17T05:33:12.911Z,982.16
2022-09-17T05:34:12.815Z,982.19
2022-09-17T05:35:12.795Z,982.21
2022-09-17T05:36:12.816Z,982.25
2022-09-17T05:37:13.705Z,982.27
2022-09-17T05:38:12.777Z,982.30
2022-09-17T05:39:12.784Z,982.29
2022-09-17T05:40:12.827Z,982.30
2022-09-17T05:41:12.808Z,982.30
2022-09-17T05:42:12.751Z,982.30
2022-09-17T05:43:12.744Z,982.27
2022-09-17T05:44:17.349Z,982.31
2022-09-17T05:45:13.723Z,982.30
2022-09-17T05:46:12.734Z,982.30
2022-09-17T05:47:12.729Z,982.31
2022-09-17T05:48:12.781Z,982.32
2022-09-17T05:49:13.495Z,982.31
2022-09-17T05:50:13.638Z,982.33
2022-09-17T05:51:12.681Z,982.33
2022-09-17T05:52:12.662Z,982.35
2022-09-17T05:53:12.697Z,982.36
2022-09-17T05:54:12.652Z,982.34
2022-09-17T05:55:12.840Z,982.34
2022-09-17T05:56:12.628Z,982.31
2022-09-17T05:57:12.646Z,982.30
2022-09-17T05:58:12.767Z,982.28
2022-09-17T05:59:12.613Z,982.26
2022-09-17T06:00:12.597Z,982.28
2022-09-17T06:01:12.619Z,982.29
2022-09-17T06:02:12.601Z,982.30
2022-09-17T06:03:12.637Z,982.33
2022-09-17T06:04:12.681Z,982.33
2022-09-17T06:05:12.650Z,982.32
2022-09-17T06:06:12.550Z,982.33
2022-09-17T06:07:12.570Z,982.36
2022-09-17T06:08:12.615Z,982.35
2022-09-17T06:09:12.559Z,982.37
2022-09-17T06:10:12.518Z,982.37
2022-09-17T06:11:12.677Z,982.37
2022-09-17T06:12:12.504Z,982.38
2022-09-17T06:14:20.094Z,982.39
2022-09-17T06:15:12.475Z,982.41
2022-09-17T06:16:12.534Z,982.41
2022-09-17T06:17:12.484Z,982.44
2022-09-17T06:18:12.450Z,982.48
2022-09-17T06:19:12.447Z,982.47
2022-09-17T06:20:12.530Z,982.50
2022-09-17T06:21:12.437Z,982.49
2022-09-17T06:22:12.417Z,982.49
2022-09-17T06:23:15.871Z,982.49
2022-09-17T06:24:12.407Z,982.52
2022-09-17T06:25:13.035Z,982.54
2022-09-17T06:26:12.376Z,982.54
2022-09-17T06:27:12.387Z,982.52
2022-09-17T06:28:12.387Z,982.54
2022-09-17T06:29:12.396Z,982.55
2022-09-17T06:30:12.359Z,982.53
2022-09-17T06:31:12.477Z,982.55
2022-09-17T06:32:12.345Z,982.61
2022-09-17T06:33:12.333Z,982.63
2022-09-17T06:34:12.332Z,982.61
2022-09-17T06:35:12.331Z,982.61
2022-09-17T06:36:14.664Z,982.61
2022-09-17T06:37:12.302Z,982.64
2022-09-17T06:38:12.307Z,982.64
2022-09-17T06:39:12.306Z,982.60
2022-09-17T06:40:12.354Z,982.62
2022-09-17T06:41:12.259Z,982.58
2022-09-17T06:42:12.379Z,982.58
2022-09-17T06:43:12.232Z,982.57
2022-09-17T06:44:12.229Z,982.56
2022-09-17T06:45:16.566Z,982.57
2022-09-17T06:46:12.278Z,982.58
2022-09-17T06:47:12.204Z,982.60
2022-09-17T06:48:12.208Z,982.60
2022-09-17T06:49:12.208Z,982.61
2022-09-17T06:50:12.194Z,982.61
2022-09-17T06:51:12.236Z,982.65
2022-09-17T06:52:12.252Z,982.68
2022-09-17T06:53:12.167Z,982.70
2022-09-17T06:54:12.204Z,982.69
2022-09-17T06:55:12.141Z,982.70
2022-09-17T06:56:12.170Z,982.73
2022-09-17T06:57:12.148Z,982.72
2022-09-17T06:58:12.125Z,982.72
2022-09-17T06:59:12.107Z,982.72
2022-09-17T07:00:12.146Z,982.73
2022-09-17T07:01:12.166Z,982.74
2022-09-17T07:02:12.103Z,982.73
2022-09-17T07:03:12.103Z,982.69
2022-09-17T07:04:12.076Z,982.67
2022-09-17T07:05:12.064Z,982.69
2022-09-17T07:06:12.078Z,982.67
2022-09-17T07:07:12.056Z,982.67
2022-09-17T07:08:12.145Z,982.68
2022-09-17T07:09:12.038Z,982.64
2022-09-17T07:10:12.020Z,982.58
2022-09-17T07:11:12.065Z,982.56
2022-09-17T07:12:12.018Z,982.53
2022-09-17T07:13:12.010Z,982.50
2022-09-17T07:14:12.075Z,982.47
2022-09-17T07:15:11.969Z,982.45
2022-09-17T07:16:12.009Z,982.49
2022-09-17T07:17:11.954Z,982.51
2022-09-17T07:18:11.956Z,982.55
2022-09-17T07:19:14.836Z,982.57
2022-09-17T07:20:11.987Z,982.60
2022-09-17T07:21:11.933Z,982.66
2022-09-17T07:22:11.930Z,982.62
2022-09-17T07:23:11.915Z,982.60
2022-09-17T07:24:11.990Z,982.59
2022-09-17T07:25:11.923Z,982.58
2022-09-17T07:26:11.914Z,982.57
2022-09-17T07:27:11.892Z,982.58
2022-09-17T07:28:11.945Z,982.55
2022-09-17T07:29:11.869Z,982.59
2022-09-17T07:30:11.890Z,982.57
2022-09-17T07:31:16.105Z,982.54
2022-09-17T07:32:11.840Z,982.54
2022-09-17T07:33:11.849Z,982.49
2022-09-17T07:34:11.814Z,982.50
2022-09-17T07:35:11.816Z,982.49
2022-09-17T07:36:11.825Z,982.50
2022-09-17T07:37:11.793Z,982.49
2022-09-17T07:38:11.798Z,982.43
2022-09-17T07:39:11.781Z,982.44
2022-09-17T07:40:11.925Z,982.43
2022-09-17T07:41:11.758Z,982.47
2022-09-17T07:42:11.775Z,982.47
2022-09-17T07:43:11.816Z,982.44
2022-09-17T07:44:11.734Z,982.44
2022-09-17T07:45:11.721Z,982.41
2022-09-17T07:46:11.786Z,982.43
2022-09-17T07:47:11.768Z,982.48
2022-09-17T07:48:11.727Z,982.45
2022-09-17T07:49:11.688Z,982.47
2022-09-17T07:50:11.686Z,982.47
2022-09-17T07:51:11.680Z,982.52
2022-09-17T07:52:11.697Z,982.49
2022-09-17T07:53:11.659Z,982.54
2022-09-17T07:54:11.669Z,982.57
2022-09-17T07:55:11.662Z,982.54
2022-09-17T07:56:12.142Z,982.53
2022-09-17T07:57:11.635Z,982.51
2022-09-17T07:58:11.651Z,982.49
2022-09-17T07:59:11.608Z,982.48
2022-09-17T08:00:11.614Z,982.55
2022-09-17T08:01:11.585Z,982.50
2022-09-17T08:02:11.744Z,982.60
2022-09-17T08:03:11.614Z,982.60
2022-09-17T08:04:11.597Z,982.60
2022-09-17T08:05:11.553Z,982.59
2022-09-17T08:06:11.547Z,982.55
2022-09-17T08:07:11.551Z,982.52
2022-09-17T08:08:11.549Z,982.53
2022-09-17T08:09:11.558Z,982.47
2022-09-17T08:10:11.513Z,982.43
2022-09-17T08:11:11.515Z,982.48
2022-09-17T08:12:11.592Z,982.52
2022-09-17T08:13:11.493Z,982.55
2022-09-17T08:14:11.529Z,982.56
2022-09-17T08:15:11.495Z,982.55
2022-09-17T08:16:11.497Z,982.55
2022-09-17T08:17:11.460Z,982.57
2022-09-17T08:18:11.444Z,982.57
2022-09-17T08:19:11.442Z,982.56
2022-09-17T08:20:11.438Z,982.59
2022-09-17T08:21:11.440Z,982.61
2022-09-17T08:22:11.420Z,982.59
2022-09-17T08:23:11.413Z,982.61
2022-09-17T08:24:11.389Z,982.61
2022-09-17T08:25:11.393Z,982.61
2022-09-17T08:26:11.410Z,982.71
2022-09-17T08:27:11.390Z,982.65
2022-09-17T08:28:11.453Z,982.53
2022-09-17T08:29:11.426Z,982.59
2022-09-17T08:30:11.369Z,982.57
2022-09-17T08:31:11.418Z,982.53
2022-09-17T08:32:11.464Z,982.57
2022-09-17T08:33:13.360Z,982.60
2022-09-17T08:34:11.323Z,982.56
2022-09-17T08:35:11.304Z,982.52
2022-09-17T08:36:11.301Z,982.51
2022-09-17T08:37:11.292Z,982.54
2022-09-17T08:38:11.309Z,982.58
2022-09-17T08:39:11.266Z,982.54
2022-09-17T08:40:11.343Z,982.52
2022-09-17T08:41:11.246Z,982.61
2022-09-17T08:42:11.393Z,982.60
2022-09-17T08:43:11.238Z,982.56
2022-09-17T08:44:11.352Z,982.54
2022-09-17T08:45:11.228Z,982.54
2022-09-17T08:46:11.252Z,982.60
2022-09-17T08:47:11.213Z,982.67
2022-09-17T08:48:11.199Z,982.52
2022-09-17T08:49:11.187Z,982.57
2022-09-17T08:50:11.198Z,982.62
2022-09-17T08:51:11.172Z,982.67
2022-09-17T08:52:11.175Z,982.69
2022-09-17T08:53:11.155Z,982.81
2022-09-17T08:54:11.154Z,982.73
2022-09-17T08:55:11.153Z,982.69
2022-09-17T08:56:11.129Z,982.64
2022-09-17T08:57:11.150Z,982.52
2022-09-17T08:58:11.110Z,982.49
2022-09-17T08:59:11.527Z,982.53
2022-09-17T09:00:11.189Z,982.55
2022-09-17T09:01:11.114Z,982.58
2022-09-17T09:02:11.179Z,982.57
2022-09-17T09:03:11.083Z,982.61
2022-09-17T09:04:11.082Z,982.65
2022-09-17T09:05:11.064Z,982.67
2022-09-17T09:06:11.258Z,982.67
2022-09-17T09:07:11.066Z,982.68
2022-09-17T09:08:11.048Z,982.69
2022-09-17T09:09:11.027Z,982.65
2022-09-17T09:10:11.017Z,982.66
2022-09-17T09:11:11.005Z,982.68
2022-09-17T09:12:11.254Z,982.69
2022-09-17T09:13:10.995Z,982.74
2022-09-17T09:14:10.985Z,982.76
2022-09-17T09:15:10.978Z,982.78
2022-09-17T09:16:11.164Z,982.84
2022-09-17T09:17:10.968Z,982.80
2022-09-17T09:18:11.001Z,982.83
2022-09-17T09:19:13.394Z,982.85
2022-09-17T09:20:10.980Z,982.84
2022-09-17T09:21:10.930Z,982.88
2022-09-17T09:22:10.926Z,982.89
2022-09-17T09:23:10.910Z,982.91
2022-09-17T09:24:10.933Z,982.88
2022-09-17T09:25:10.917Z,982.91
2022-09-17T09:26:10.909Z,982.94
2022-09-17T09:27:10.884Z,982.98
2022-09-17T09:28:10.890Z,982.99
2022-09-17T09:29:10.874Z,982.99
2022-09-17T09:30:10.895Z,982.98
2022-09-17T09:31:10.890Z,982.99
2022-09-17T09:32:16.392Z,983.00
2022-09-17T09:33:11.835Z,983.00
2022-09-17T09:34:10.826Z,983.06
2022-09-17T09:35:10.832Z,982.96
2022-09-17T09:36:10.806Z,982.99
2022-09-17T09:37:10.886Z,982.90
2022-09-17T09:38:10.807Z,982.91
2022-09-17T09:39:10.790Z,982.86
2022-09-17T09:40:10.824Z,982.83
2022-09-17T09:41:10.882Z,982.88
2022-09-17T09:42:10.799Z,982.71
2022-09-17T09:43:12.938Z,982.81
2022-09-17T09:44:10.748Z,982.68
2022-09-17T09:45:10.739Z,982.66
2022-09-17T09:46:10.774Z,982.66
2022-09-17T09:47:10.717Z,982.69
2022-09-17T09:48:10.816Z,982.70
2022-09-17T09:49:10.699Z,982.76
2022-09-17T09:50:10.728Z,982.62
2022-09-17T09:51:10.701Z,982.71
2022-09-17T09:52:10.694Z,982.66
2022-09-17T09:53:10.687Z,982.69
2022-09-17T09:54:10.660Z,982.71
2022-09-17T09:55:10.649Z,982.75
2022-09-17T09:56:10.636Z,982.80
2022-09-17T09:57:10.629Z,982.83
2022-09-17T09:58:10.664Z,982.85
2022-09-17T09:59:10.626Z,982.88
2022-09-17T10:00:10.616Z,982.85
2022-09-17T10:01:10.604Z,982.87
2022-09-17T10:02:10.659Z,982.91
2022-09-17T10:03:10.601Z,982.95
2022-09-17T10:04:10.583Z,982.96
2022-09-17T10:05:10.569Z,982.98
2022-09-17T10:06:10.564Z,982.99
2022-09-17T10:07:10.561Z,983.00
2022-09-17T10:08:10.570Z,983.01
2022-09-17T10:09:10.560Z,983.03
2022-09-17T10:10:10.527Z,983.05
2022-09-17T10:11:10.514Z,983.03
2022-09-17T10:12:10.508Z,983.05
2022-09-17T10:13:10.510Z,983.04
2022-09-17T10:14:10.552Z,983.09
2022-09-17T10:15:10.485Z,983.03
2022-09-17T10:16:10.631Z,982.98
2022-09-17T10:17:10.474Z,982.92
2022-09-17T10:18:10.474Z,982.88
2022-09-17T10:19:10.487Z,982.97
2022-09-17T10:20:10.545Z,982.97
2022-09-17T10:21:10.432Z,982.99
2022-09-17T10:22:10.434Z,983.10
2022-09-17T10:23:10.508Z,983.01
2022-09-17T10:24:10.426Z,983.03
2022-09-17T10:25:10.434Z,983.04
2022-09-17T10:26:10.462Z,983.09
2022-09-17T10:27:10.475Z,983.01
2022-09-17T10:28:10.393Z,983.00
2022-09-17T10:29:10.375Z,983.00
2022-09-17T10:30:10.368Z,983.02
2022-09-17T10:31:10.598Z,983.05
2022-09-17T10:32:10.488Z,983.01
2022-09-17T10:33:10.340Z,982.94
2022-09-17T10:34:10.337Z,982.95
2022-09-17T10:35:10.327Z,982.91
2022-09-17T10:36:10.426Z,982.87
2022-09-17T10:37:10.314Z,982.85
2022-09-17T10:38:10.308Z,982.81
2022-09-17T10:39:10.341Z,982.70
2022-09-17T10:40:10.344Z,982.77
2022-09-17T10:41:10.281Z,982.68
2022-09-17T10:42:10.294Z,982.74
2022-09-17T10:43:10.263Z,982.71
2022-09-17T10:44:10.263Z,982.73
2022-09-17T10:45:10.248Z,982.75
2022-09-17T10:46:10.332Z,982.86
2022-09-17T10:47:10.223Z,982.74
2022-09-17T10:48:10.245Z,982.75
2022-09-17T10:49:10.220Z,982.82
2022-09-17T10:50:10.197Z,982.74
2022-09-17T10:51:10.205Z,982.82
2022-09-17T10:52:10.271Z,982.80
2022-09-17T10:53:10.204Z,982.74
2022-09-17T10:54:10.178Z,982.62
2022-09-17T10:55:10.174Z,982.66
2022-09-17T10:56:10.496Z,982.71
2022-09-17T10:57:10.197Z,982.68
2022-09-17T10:58:10.183Z,982.74
2022-09-17T10:59:10.139Z,982.78
2022-09-17T11:00:10.181Z,982.85
2022-09-17T11:01:10.099Z,982.87
2022-09-17T11:02:10.184Z,982.88
2022-09-17T11:03:10.111Z,982.83
2022-09-17T11:04:10.254Z,982.85
2022-09-17T11:05:10.101Z,982.92
2022-09-17T11:06:14.323Z,982.87
2022-09-17T11:07:10.063Z,982.99
2022-09-17T11:08:10.136Z,982.97
2022-09-17T11:09:10.056Z,982.94
2022-09-17T11:10:10.080Z,982.88
2022-09-17T11:11:10.028Z,982.85
2022-09-17T11:12:10.063Z,982.81
2022-09-17T11:13:10.014Z,982.79
2022-09-17T11:14:10.009Z,982.75
2022-09-17T11:15:10.024Z,982.65
2022-09-17T11:16:10.052Z,982.67
2022-09-17T11:17:09.976Z,982.74
2022-09-17T11:18:09.971Z,982.67
2022-09-17T11:19:09.962Z,982.70
2022-09-17T11:20:10.002Z,982.70
2022-09-17T11:21:09.947Z,982.73
2022-09-17T11:22:09.934Z,982.79
2022-09-17T11:23:09.947Z,982.86
2022-09-17T11:24:10.010Z,982.87
2022-09-17T11:25:09.940Z,982.99
2022-09-17T11:26:09.937Z,983.03
2022-09-17T11:27:09.904Z,983.04
2022-09-17T11:28:09.889Z,983.06
2022-09-17T11:29:09.886Z,983.02
2022-09-17T11:30:09.889Z,983.07
2022-09-17T11:31:09.924Z,983.07
2022-09-17T11:32:09.861Z,983.03
2022-09-17T11:33:09.857Z,982.97
2022-09-17T11:34:09.880Z,982.98
2022-09-17T11:35:09.847Z,982.95
2022-09-17T11:36:09.825Z,982.92
2022-09-17T11:37:09.819Z,982.86
2022-09-17T11:38:09.823Z,982.83
2022-09-17T11:39:09.802Z,982.81
2022-09-17T11:40:09.971Z,982.77
2022-09-17T11:41:10.700Z,982.71
2022-09-17T11:42:10.727Z,982.71
2022-09-17T11:43:10.633Z,982.71
2022-09-17T11:44:09.763Z,982.65
2022-09-17T11:45:09.746Z,982.65
2022-09-17T11:46:09.833Z,982.61
2022-09-17T11:47:09.778Z,982.61
2022-09-17T11:48:09.802Z,982.56
2022-09-17T11:49:09.729Z,982.50
2022-09-17T11:50:09.717Z,982.51
2022-09-17T11:51:09.724Z,982.47
2022-09-17T11:52:10.045Z,982.45
2022-09-17T11:53:09.694Z,982.48
2022-09-17T11:54:09.682Z,982.49
2022-09-17T11:55:09.695Z,982.48
2022-09-17T11:56:09.746Z,982.45
2022-09-17T11:57:10.144Z,982.46
2022-09-17T11:58:09.666Z,982.46
2022-09-17T11:59:09.664Z,982.43
2022-09-17T12:00:09.652Z,982.44
2022-09-17T12:01:09.642Z,982.45
2022-09-17T12:02:09.727Z,982.42
2022-09-17T12:03:09.660Z,982.42
2022-09-17T12:04:09.598Z,982.47
2022-09-17T12:05:09.609Z,982.55
2022-09-17T12:06:09.582Z,982.42
2022-09-17T12:07:09.576Z,982.43
2022-09-17T12:08:13.948Z,982.40
2022-09-17T12:09:10.590Z,982.45
2022-09-17T12:10:10.214Z,982.46
2022-09-17T12:11:09.547Z,982.42
2022-09-17T12:12:21.753Z,982.45
2022-09-17T12:13:10.523Z,982.41
2022-09-17T12:14:09.528Z,982.36
2022-09-17T12:15:09.591Z,982.34
2022-09-17T12:16:09.538Z,982.40
2022-09-17T12:17:10.289Z,982.28
2022-09-17T12:18:31.273Z,982.31
2022-09-17T12:19:10.510Z,982.32
2022-09-17T12:20:09.488Z,982.26
2022-09-17T12:21:09.484Z,982.29
2022-09-17T12:22:09.458Z,982.26
2022-09-17T12:23:09.684Z,982.27
2022-09-17T12:24:09.438Z,982.28
2022-09-17T12:25:09.446Z,982.27
2022-09-17T12:26:09.486Z,982.28
2022-09-17T12:27:10.003Z,982.28
2022-09-17T12:28:10.283Z,982.21
2022-09-17T12:29:09.504Z,982.18
2022-09-17T12:30:09.467Z,982.18
2022-09-17T12:31:09.426Z,982.20